createdAt,value
2023-07-19T00:01:05.930Z,17.60
2023-07-19T00:03:33.309Z,17.40
2023-07-19T00:06:03.686Z,17.40
2023-07-19T00:08:32.482Z,17.40
2023-07-19T00:10:59.896Z,17.40
2023-07-19T00:13:27.180Z,17.40
2023-07-19T00:15:54.259Z,17.30
2023-07-19T00:18:21.384Z,17.30
2023-07-19T00:20:48.599Z,17.30
2023-07-19T00:23:15.806Z,17.30
2023-07-19T00:25:42.958Z,17.30
2023-07-19T00:28:09.906Z,17.20
2023-07-19T00:30:37.142Z,17.20
2023-07-19T00:33:04.290Z,17.10
2023-07-19T00:35:32.181Z,17.10
2023-07-19T00:37:59.202Z,17.10
2023-07-19T00:40:26.253Z,17.20
2023-07-19T00:42:57.717Z,17.20
2023-07-19T00:45:26.988Z,17.20
2023-07-19T00:47:56.267Z,17.10
2023-07-19T00:50:24.523Z,17.00
2023-07-19T00:52:53.074Z,17.10
2023-07-19T00:55:20.640Z,17.00
2023-07-19T00:57:47.796Z,16.90
2023-07-19T01:00:15.023Z,16.90
2023-07-19T01:02:42.622Z,16.80
2023-07-19T01:05:09.814Z,16.80
2023-07-19T01:07:38.849Z,16.80
2023-07-19T01:10:07.152Z,16.70
2023-07-19T01:12:34.279Z,16.80
2023-07-19T01:15:02.094Z,16.80
2023-07-19T01:17:29.169Z,16.80
2023-07-19T01:19:56.404Z,16.80
2023-07-19T01:22:23.563Z,16.80
2023-07-19T01:24:50.627Z,16.80
2023-07-19T01:27:22.979Z,16.70
2023-07-19T01:29:50.823Z,16.70
2023-07-19T01:32:18.870Z,16.60
2023-07-19T01:34:45.836Z,16.60
2023-07-19T01:37:12.901Z,16.50
2023-07-19T01:39:40.055Z,16.40
2023-07-19T01:42:07.678Z,16.50
2023-07-19T01:44:34.724Z,16.40
2023-07-19T01:47:01.763Z,16.40
2023-07-19T01:49:29.002Z,16.40
2023-07-19T01:51:56.019Z,16.50
2023-07-19T01:54:23.083Z,16.40
2023-07-19T01:56:50.288Z,16.40
2023-07-19T01:59:17.455Z,16.40
2023-07-19T02:01:45.088Z,16.40
2023-07-19T02:04:12.250Z,16.40
2023-07-19T02:06:39.268Z,16.30
2023-07-19T02:09:06.295Z,16.30
2023-07-19T02:11:33.358Z,16.20
2023-07-19T02:14:00.426Z,16.10
2023-07-19T02:16:27.646Z,16.00
2023-07-19T02:18:54.664Z,15.90
2023-07-19T02:21:22.104Z,15.90
2023-07-19T02:23:49.344Z,15.80
2023-07-19T02:26:16.360Z,15.80
2023-07-19T02:28:43.395Z,15.80
2023-07-19T02:31:10.425Z,15.70
2023-07-19T02:33:38.208Z,15.70
2023-07-19T02:36:05.388Z,15.70
2023-07-19T02:38:32.733Z,15.70
2023-07-19T02:41:01.258Z,15.70
2023-07-19T02:43:29.055Z,15.70
2023-07-19T02:45:56.479Z,15.60
2023-07-19T02:48:24.033Z,15.60
2023-07-19T02:50:51.249Z,15.60
2023-07-19T02:53:18.320Z,15.60
2023-07-19T02:55:46.139Z,15.50
2023-07-19T02:58:14.241Z,15.60
2023-07-19T03:00:42.371Z,15.50
2023-07-19T03:03:12.607Z,15.50
2023-07-19T03:05:43.436Z,15.50
2023-07-19T03:08:10.761Z,15.60
2023-07-19T03:10:38.369Z,15.40
2023-07-19T03:13:05.859Z,15.40
2023-07-19T03:15:34.718Z,15.30
2023-07-19T03:18:05.901Z,15.40
2023-07-19T03:20:33.056Z,15.30
2023-07-19T03:23:02.082Z,15.30
2023-07-19T03:25:30.354Z,15.30
2023-07-19T03:27:58.111Z,15.30
2023-07-19T03:30:25.678Z,15.30
2023-07-19T03:32:53.274Z,15.30
2023-07-19T03:35:21.955Z,15.40
2023-07-19T03:37:49.365Z,15.50
2023-07-19T03:40:16.495Z,15.40
2023-07-19T03:42:43.645Z,15.40
2023-07-19T03:45:11.158Z,15.50
2023-07-19T03:47:38.557Z,15.50
2023-07-19T03:50:06.261Z,15.50
2023-07-19T03:52:33.330Z,15.60
2023-07-19T03:55:00.535Z,15.70
2023-07-19T03:57:27.664Z,15.80
2023-07-19T03:59:55.390Z,15.80
2023-07-19T04:02:23.543Z,16.00
2023-07-19T04:04:51.133Z,16.10
2023-07-19T04:07:18.946Z,16.10
2023-07-19T04:09:45.979Z,16.10
2023-07-19T04:12:12.914Z,16.20
2023-07-19T04:14:40.519Z,16.30
2023-07-19T04:17:08.887Z,16.40
2023-07-19T04:19:36.310Z,16.50
2023-07-19T04:22:04.338Z,16.50
2023-07-19T04:24:31.446Z,16.60
2023-07-19T04:26:58.473Z,16.60
2023-07-19T04:29:25.552Z,16.80
2023-07-19T04:31:52.586Z,16.80
2023-07-19T04:34:21.463Z,16.90
2023-07-19T04:36:49.404Z,16.90
2023-07-19T04:39:16.403Z,17.00
2023-07-19T04:41:46.032Z,17.10
2023-07-19T04:44:13.216Z,17.20
2023-07-19T04:46:40.383Z,17.30
2023-07-19T04:49:08.186Z,17.40
2023-07-19T04:51:35.406Z,17.40
2023-07-19T04:54:02.410Z,17.50
2023-07-19T04:56:29.580Z,17.50
2023-07-19T04:58:59.776Z,17.60
2023-07-19T05:01:26.899Z,17.70
2023-07-19T05:03:53.953Z,17.70
2023-07-19T05:06:21.087Z,17.70
2023-07-19T05:08:48.300Z,17.80
2023-07-19T05:11:15.228Z,17.90
2023-07-19T05:13:44.066Z,17.90
2023-07-19T05:16:11.198Z,18.00
2023-07-19T05:18:38.320Z,18.10
2023-07-19T05:21:05.459Z,18.20
2023-07-19T05:23:32.517Z,18.30
2023-07-19T05:26:00.063Z,18.40
2023-07-19T05:28:27.056Z,18.50
2023-07-19T05:30:54.494Z,18.60
2023-07-19T05:33:21.414Z,18.60
2023-07-19T05:35:49.566Z,18.70
2023-07-19T05:38:16.704Z,18.80
2023-07-19T05:40:43.758Z,19.00
2023-07-19T05:43:11.155Z,19.10
2023-07-19T05:45:38.680Z,19.20
2023-07-19T05:48:06.121Z,19.30
2023-07-19T05:50:33.272Z,19.30
2023-07-19T05:53:00.383Z,19.40
2023-07-19T05:55:27.428Z,19.50
2023-07-19T05:57:54.711Z,19.60
2023-07-19T06:00:29.708Z,19.70
2023-07-19T06:02:57.769Z,19.80
2023-07-19T06:05:26.051Z,19.90
2023-07-19T06:07:53.707Z,20.10
2023-07-19T06:10:20.982Z,20.10
2023-07-19T06:12:48.543Z,20.20
2023-07-19T06:15:16.093Z,20.30
2023-07-19T06:17:43.972Z,20.40
2023-07-19T06:20:12.426Z,20.50
2023-07-19T06:22:39.579Z,20.60
2023-07-19T06:25:07.651Z,20.70
2023-07-19T06:27:35.011Z,20.80
2023-07-19T06:30:02.513Z,20.90
2023-07-19T06:32:29.973Z,21.00
2023-07-19T06:34:57.181Z,21.10
2023-07-19T06:37:24.241Z,21.20
2023-07-19T06:39:51.434Z,21.30
2023-07-19T06:42:18.622Z,21.20
2023-07-19T06:44:45.809Z,21.40
2023-07-19T06:47:12.916Z,21.30
2023-07-19T06:49:40.013Z,21.50
2023-07-19T06:52:08.106Z,21.60
2023-07-19T06:54:35.280Z,21.70
2023-07-19T06:57:02.344Z,21.80
2023-07-19T06:59:29.941Z,21.80
2023-07-19T07:01:57.082Z,21.80
2023-07-19T07:04:25.357Z,21.90
2023-07-19T07:06:52.330Z,22.00
2023-07-19T07:09:19.532Z,22.20
2023-07-19T07:11:46.619Z,22.30
2023-07-19T07:14:13.771Z,22.40
2023-07-19T07:16:41.380Z,22.50
2023-07-19T07:19:08.345Z,22.70
2023-07-19T07:21:35.327Z,22.80
2023-07-19T07:24:02.343Z,22.80
2023-07-19T07:26:29.328Z,22.90
2023-07-19T07:28:56.457Z,22.90
2023-07-19T07:31:23.866Z,22.90
2023-07-19T07:33:51.115Z,22.90
2023-07-19T07:36:18.086Z,22.90
2023-07-19T07:38:45.142Z,22.90
2023-07-19T07:41:13.993Z,23.10
2023-07-19T07:43:41.614Z,23.20
2023-07-19T07:46:11.734Z,23.40
2023-07-19T07:48:38.888Z,23.50
2023-07-19T07:51:06.293Z,23.70
2023-07-19T07:53:53.061Z,23.80
2023-07-19T07:56:20.505Z,23.80
2023-07-19T07:58:47.659Z,23.70
2023-07-19T08:01:14.862Z,23.80
2023-07-19T08:03:42.280Z,24.00
2023-07-19T08:06:26.237Z,24.20
2023-07-19T08:08:53.468Z,24.10
2023-07-19T08:11:29.005Z,24.20
2023-07-19T08:14:14.858Z,24.20
2023-07-19T08:16:46.725Z,24.20
2023-07-19T08:19:14.685Z,24.10
2023-07-19T08:21:42.181Z,24.10
2023-07-19T08:24:17.225Z,24.00
2023-07-19T08:26:44.539Z,24.20
2023-07-19T08:29:12.728Z,25.00
2023-07-19T08:31:39.788Z,26.00
2023-07-19T08:34:07.314Z,26.70
2023-07-19T08:36:37.326Z,27.40
2023-07-19T08:39:04.666Z,28.10
2023-07-19T08:41:34.028Z,28.30
2023-07-19T08:44:01.730Z,28.00
2023-07-19T08:46:29.333Z,28.10
2023-07-19T08:48:56.592Z,27.60
2023-07-19T08:52:09.151Z,28.00
2023-07-19T08:54:41.287Z,28.50
2023-07-19T08:57:08.490Z,29.30
2023-07-19T08:59:35.874Z,29.50
2023-07-19T09:02:38.022Z,29.80
2023-07-19T09:05:09.476Z,29.50
2023-07-19T09:07:38.077Z,29.20
2023-07-19T09:10:07.210Z,28.80
2023-07-19T09:12:40.424Z,28.40
2023-07-19T09:15:13.896Z,28.60
2023-07-19T09:17:49.299Z,28.10
2023-07-19T09:20:18.639Z,27.90
2023-07-19T09:22:46.525Z,27.80
2023-07-19T09:25:19.832Z,27.10
2023-07-19T09:28:21.536Z,27.20
2023-07-19T09:53:40.110Z,29.70
2023-07-19T10:05:07.386Z,29.70
2023-07-19T10:11:03.718Z,29.90
2023-07-19T10:18:07.540Z,29.90
2023-07-19T10:33:45.921Z,32.40
2023-07-19T10:39:26.974Z,31.90
2023-07-19T10:48:38.145Z,31.00
2023-07-19T10:58:09.954Z,31.30
2023-07-19T11:10:07.003Z,30.20
2023-07-19T11:12:38.031Z,29.80
2023-07-19T11:15:13.072Z,29.70
2023-07-19T11:17:41.295Z,30.50
2023-07-19T11:20:10.291Z,30.60
2023-07-19T11:22:45.002Z,31.10
2023-07-19T11:42:49.809Z,29.60
2023-07-19T11:45:21.612Z,29.60
2023-07-19T11:47:50.491Z,29.00
2023-07-19T11:50:17.765Z,28.90
2023-07-19T11:52:53.006Z,28.70
2023-07-19T11:55:20.786Z,28.20
2023-07-19T11:57:50.460Z,28.20
2023-07-19T12:00:19.047Z,28.40
2023-07-19T12:10:53.489Z,27.90
2023-07-19T12:13:20.903Z,28.10
2023-07-19T12:15:48.028Z,28.00
2023-07-19T12:18:15.332Z,27.70
2023-07-19T12:20:42.385Z,27.80
2023-07-19T12:23:09.685Z,28.30
2023-07-19T12:25:39.221Z,29.20
2023-07-19T12:28:06.400Z,29.70
2023-07-19T12:30:33.598Z,30.40
2023-07-19T12:33:02.292Z,31.10
2023-07-19T12:35:29.885Z,31.60
2023-07-19T12:37:57.157Z,32.40
2023-07-19T12:40:24.623Z,32.90
2023-07-19T12:42:54.784Z,33.10
2023-07-19T12:45:21.827Z,33.40
2023-07-19T12:47:50.406Z,33.20
2023-07-19T12:50:17.828Z,32.90
2023-07-19T12:52:52.362Z,32.50
2023-07-19T12:55:20.268Z,32.30
2023-07-19T12:57:47.450Z,32.60
2023-07-19T13:00:14.929Z,32.90
2023-07-19T13:02:45.718Z,33.20
2023-07-19T13:05:13.421Z,33.40
2023-07-19T13:07:40.576Z,33.70
2023-07-19T13:10:14.898Z,33.10
2023-07-19T13:12:42.763Z,33.00
2023-07-19T13:15:11.410Z,33.50
2023-07-19T13:17:40.087Z,33.70
2023-07-19T13:20:12.066Z,33.90
2023-07-19T13:22:39.473Z,34.50
2023-07-19T13:25:07.271Z,34.30
2023-07-19T13:27:36.164Z,34.50
2023-07-19T13:30:05.103Z,34.90
2023-07-19T13:32:33.870Z,35.10
2023-07-19T13:35:01.079Z,35.40
2023-07-19T13:38:06.744Z,35.90
2023-07-19T13:40:15.562Z,36.20
2023-07-19T13:42:45.731Z,35.90
2023-07-19T13:45:13.419Z,36.00
2023-07-19T13:47:43.083Z,34.30
2023-07-19T13:50:11.047Z,34.50
2023-07-19T13:52:38.170Z,35.10
2023-07-19T13:55:06.425Z,35.80
2023-07-19T13:57:33.391Z,35.90
2023-07-19T14:00:00.556Z,36.60
2023-07-19T14:02:31.430Z,36.00
2023-07-19T14:04:59.471Z,36.60
2023-07-19T14:07:28.050Z,35.60
2023-07-19T14:09:56.235Z,35.60
2023-07-19T14:15:02.222Z,34.90
2023-07-19T14:17:29.461Z,35.20
2023-07-19T14:19:57.388Z,35.60
2023-07-19T14:22:24.697Z,36.10
2023-07-19T14:24:52.094Z,36.20
2023-07-19T14:27:19.354Z,36.20
2023-07-19T14:29:48.050Z,35.60
2023-07-19T14:32:15.865Z,34.70
2023-07-19T14:34:47.457Z,35.10
2023-07-19T14:37:16.973Z,34.80
2023-07-19T14:39:44.683Z,33.80
2023-07-19T14:42:13.198Z,33.40
2023-07-19T14:44:43.469Z,33.90
2023-07-19T14:47:15.988Z,34.20
2023-07-19T14:49:43.077Z,34.10
2023-07-19T14:52:10.344Z,33.40
2023-07-19T14:54:37.860Z,33.70
2023-07-19T14:57:06.382Z,33.80
2023-07-19T14:59:34.069Z,33.60
2023-07-19T15:04:55.285Z,33.80
2023-07-19T15:07:23.094Z,32.80
2023-07-19T15:09:50.662Z,32.50
2023-07-19T15:12:17.806Z,32.10
2023-07-19T15:14:44.812Z,31.60
2023-07-19T15:17:11.965Z,32.20
2023-07-19T15:19:39.012Z,33.00
2023-07-19T15:22:06.599Z,33.60
2023-07-19T15:24:33.748Z,32.70
2023-07-19T15:27:01.568Z,32.90
2023-07-19T15:29:29.159Z,33.90
2023-07-19T15:31:57.898Z,35.10
2023-07-19T15:34:25.067Z,35.20
2023-07-19T15:36:52.160Z,34.70
2023-07-19T15:39:19.837Z,33.60
2023-07-19T15:41:46.944Z,32.90
2023-07-19T15:44:33.551Z,32.70
2023-07-19T15:47:01.274Z,32.90
2023-07-19T15:49:28.302Z,34.00
2023-07-19T15:55:26.345Z,34.70
2023-07-19T15:58:03.773Z,33.50
2023-07-19T16:00:34.342Z,33.90
2023-07-19T16:03:45.386Z,33.70
2023-07-19T16:09:17.088Z,32.70
2023-07-19T16:11:44.536Z,31.60
2023-07-19T16:14:11.680Z,31.90
2023-07-19T16:16:38.742Z,32.10
2023-07-19T16:19:05.899Z,31.60
2023-07-19T16:21:32.935Z,31.50
2023-07-19T16:24:00.121Z,31.80
2023-07-19T16:26:27.290Z,31.90
2023-07-19T16:28:54.850Z,31.60
2023-07-19T16:31:22.914Z,30.60
2023-07-19T16:33:50.249Z,30.20
2023-07-19T16:36:17.235Z,29.90
2023-07-19T16:38:44.231Z,29.60
2023-07-19T16:41:11.602Z,29.40
2023-07-19T16:43:38.753Z,29.30
2023-07-19T16:46:06.041Z,29.00
2023-07-19T16:48:33.142Z,28.40
2023-07-19T16:51:00.353Z,28.40
2023-07-19T16:53:27.500Z,28.40
2023-07-19T16:55:55.000Z,28.30
2023-07-19T16:58:22.016Z,28.40
2023-07-19T17:00:49.272Z,27.90
2023-07-19T17:03:17.302Z,27.90
2023-07-19T17:05:44.433Z,27.80
2023-07-19T17:08:11.480Z,27.80
2023-07-19T17:10:38.445Z,27.60
2023-07-19T17:13:07.526Z,27.50
2023-07-19T17:15:38.279Z,27.40
2023-07-19T17:18:07.998Z,27.40
2023-07-19T17:20:35.501Z,27.40
2023-07-19T17:23:03.705Z,27.20
2023-07-19T17:25:31.360Z,27.10
2023-07-19T17:28:00.549Z,27.10
2023-07-19T17:30:27.936Z,27.00
2023-07-19T17:32:55.420Z,26.90
2023-07-19T17:35:22.939Z,26.80
2023-07-19T17:37:50.550Z,26.70
2023-07-19T17:40:18.447Z,26.70
2023-07-19T17:43:28.953Z,26.60
2023-07-19T17:46:44.662Z,26.60
2023-07-19T17:49:18.348Z,26.30
2023-07-19T17:51:45.973Z,26.10
2023-07-19T17:54:13.317Z,26.30
2023-07-19T17:56:40.404Z,26.20
2023-07-19T17:59:07.758Z,26.10
2023-07-19T18:01:34.896Z,26.00
2023-07-19T18:04:02.173Z,25.80
2023-07-19T18:06:29.488Z,25.80
2023-07-19T18:08:56.630Z,25.60
2023-07-19T18:11:24.094Z,25.30
2023-07-19T18:13:51.332Z,25.30
2023-07-19T18:16:18.621Z,25.20
2023-07-19T18:18:45.692Z,25.10
2023-07-19T18:21:13.074Z,25.10
2023-07-19T18:23:40.234Z,24.80
2023-07-19T18:26:07.392Z,24.60
2023-07-19T18:28:35.572Z,24.60
2023-07-19T18:31:04.480Z,24.50
2023-07-19T18:33:31.836Z,24.50
2023-07-19T18:35:59.252Z,24.50
2023-07-19T18:38:26.470Z,24.40
2023-07-19T18:40:53.716Z,24.20
2023-07-19T18:43:20.860Z,24.10
2023-07-19T18:45:48.048Z,23.90
2023-07-19T18:48:15.239Z,23.60
2023-07-19T18:50:44.169Z,23.40
2023-07-19T18:53:11.149Z,23.10
2023-07-19T18:55:39.204Z,22.90
2023-07-19T18:58:06.361Z,22.80
2023-07-19T19:00:33.703Z,22.80
2023-07-19T19:03:01.007Z,22.70
2023-07-19T19:05:28.205Z,22.70
2023-07-19T19:07:55.551Z,22.50
2023-07-19T19:10:34.129Z,22.40
2023-07-19T19:13:08.930Z,22.30
2023-07-19T19:15:41.033Z,22.30
2023-07-19T19:23:47.006Z,21.50
2023-07-19T20:30:01.946Z,19.30
2023-07-19T20:32:51.662Z,19.30
2023-07-19T20:35:00.209Z,19.20
2023-07-19T20:39:57.325Z,19.10
2023-07-19T20:42:27.470Z,19.10
2023-07-19T20:44:55.706Z,19.00
2023-07-19T20:47:23.065Z,19.00
2023-07-19T20:49:50.128Z,19.00
2023-07-19T20:52:17.417Z,19.00
2023-07-19T20:54:45.154Z,19.00
2023-07-19T20:57:12.122Z,19.00
2023-07-19T20:59:39.078Z,18.90
2023-07-19T21:02:08.647Z,18.90
2023-07-19T21:04:35.918Z,18.80
2023-07-19T21:07:02.867Z,18.80
2023-07-19T21:09:29.881Z,18.80
2023-07-19T21:11:56.910Z,18.70
2023-07-19T21:14:25.097Z,18.70
2023-07-19T21:16:52.760Z,18.70
2023-07-19T21:19:19.916Z,18.60
2023-07-19T21:21:47.917Z,18.60
2023-07-19T21:24:15.053Z,18.50
2023-07-19T21:26:43.531Z,18.60
2023-07-19T21:29:10.801Z,18.60
2023-07-19T21:31:38.855Z,18.50
2023-07-19T21:34:05.928Z,18.60
2023-07-19T21:36:33.204Z,18.40
2023-07-19T21:39:00.179Z,18.40
2023-07-19T21:41:29.199Z,18.50
2023-07-19T21:44:00.861Z,18.40
2023-07-19T21:46:34.217Z,18.50
2023-07-19T21:49:04.497Z,18.40
2023-07-19T21:51:32.362Z,18.40
2023-07-19T21:53:59.389Z,18.50
2023-07-19T21:56:26.965Z,18.50
2023-07-19T21:58:54.290Z,18.60
2023-07-19T22:01:21.474Z,18.50
2023-07-19T22:03:48.489Z,18.60
2023-07-19T22:06:16.014Z,18.60
2023-07-19T22:08:44.501Z,18.50
2023-07-19T22:11:12.063Z,18.70
2023-07-19T22:13:43.117Z,18.60
2023-07-19T22:16:10.398Z,18.70
2023-07-19T22:18:37.527Z,18.70
2023-07-19T22:21:19.771Z,18.60
2023-07-19T22:23:48.305Z,18.50
2023-07-19T22:26:15.697Z,18.40
2023-07-19T22:28:42.763Z,18.40
2023-07-19T22:31:10.001Z,18.40
2023-07-19T22:33:37.331Z,18.40
2023-07-19T22:36:05.402Z,18.30
2023-07-19T22:38:33.119Z,18.20
2023-07-19T22:41:00.237Z,18.20
2023-07-19T22:43:27.250Z,18.20
2023-07-19T22:45:54.326Z,18.10
2023-07-19T22:48:21.307Z,18.20
2023-07-19T22:50:48.440Z,18.20
2023-07-19T22:53:15.606Z,18.20
2023-07-19T22:55:42.749Z,18.00
2023-07-19T22:58:09.876Z,18.10
2023-07-19T23:00:37.663Z,18.10
2023-07-19T23:03:05.073Z,18.10
2023-07-19T23:05:32.167Z,18.00
2023-07-19T23:07:59.135Z,18.00
2023-07-19T23:10:26.201Z,18.00
2023-07-19T23:12:53.582Z,18.00
2023-07-19T23:15:21.322Z,17.90
2023-07-19T23:17:48.476Z,17.90
2023-07-19T23:20:15.476Z,17.80
2023-07-19T23:22:42.613Z,17.80
2023-07-19T23:25:14.371Z,17.70
2023-07-19T23:27:42.982Z,17.60
2023-07-19T23:30:10.480Z,17.70
2023-07-19T23:32:37.821Z,17.60
2023-07-19T23:35:08.691Z,17.70
2023-07-19T23:37:36.336Z,17.50
2023-07-19T23:40:03.525Z,17.50
2023-07-19T23:42:30.684Z,17.50
2023-07-19T23:44:59.056Z,17.50
2023-07-19T23:47:26.239Z,17.50
2023-07-19T23:49:53.440Z,17.50
2023-07-19T23:52:20.625Z,17.50
2023-07-19T23:54:47.929Z,17.50
2023-07-19T23:57:14.862Z,17.40
2023-07-19T23:59:41.878Z,17.40
